Terminal Aerodrome Forecast
Issued by NWS

Home | Current Version | Previous Version | Text Only | Print | Product List | Glossary On
Versions: 1 2 3 4 5 6 7 8 9 10 11 12 13 14 15 16 17 18 19 20 21 22 23 24 25 26 27 28 29 30
871
FTUS41 KOKX 211944 AAA
TAFSWF
TAF AMD
KSWF 211944Z 2120/2224 24008KT P6SM SCT050 SCT150 SCT250
     FM220100 24005KT P6SM VCTS SCT045CB SCT080 BKN250
     FM220400 24005KT P6SM SCT120 BKN250
     FM220600 VRB03KT 5SM BR SCT015 SCT250
      TEMPO 2208/2212 BKN015
     FM221400 25010KT 6SM HZ SCT040 BKN250
     FM221600 25013G20KT P6SM VCTS SCT050CB BKN250
      AMD NOT SKED=

USA.gov is the U.S. government's official web portal to all federal, state and local government web resources and services.